Time;durP1;ratioP1;P1;durP2;ratioP2;P2;SDS_P1;SDS_P2;PMS_P1;PMS_P2;Temp;Humidity;BMP_temperature;BMP_pressure;BME280_temperature;BME280_humidity;BME280_pressure;Samples;Min_cycle;Max_cycle;Signal;HPM_P1;HPM_P2
2021/12/25 00:02:01;;;;;;;11.57;10.38;;;;;;;;;;5111169;28;20105;-64
2021/12/25 00:04:27;;;;;;;11.55;10.35;;;;;;;;;;5111377;28;20127;-64
2021/12/25 00:06:53;;;;;;;12.00;10.80;;;;;;;;;;5110389;28;20100;-64
2021/12/25 00:09:20;;;;;;;12.05;10.70;;;;;;;;;;5111500;28;20044;-64
2021/12/25 00:11:46;;;;;;;11.90;10.80;;;;;;;;;;5111162;28;20044;-64
2021/12/25 00:14:13;;;;;;;13.23;11.63;;;;;;;;;;5110718;28;20047;-64
2021/12/25 00:16:39;;;;;;;11.20;10.10;;;;;;;;;;5111449;28;20040;-63
2021/12/25 00:19:07;;;;;;;11.75;10.55;;;;;;;;;;5112105;28;20055;-63
2021/12/25 00:21:34;;;;;;;11.43;10.32;;;;;;;;;;5110772;28;20090;-63
2021/12/25 00:24:00;;;;;;;11.75;10.60;;;;;;;;;;5112142;28;20047;-64
2021/12/25 00:26:41;;;;;;;10.82;9.80;;;;;;;;;;5112404;28;20024;-63
2021/12/25 00:29:30;;;;;;;10.90;9.90;;;;;;;;;;5110848;28;20044;-63
2021/12/25 00:32:08;;;;;;;10.98;9.90;;;;;;;;;;5111652;28;20056;-64
2021/12/25 00:34:36;;;;;;;11.13;10.02;;;;;;;;;;5111482;28;20039;-64
2021/12/25 00:37:03;;;;;;;10.95;9.95;;;;;;;;;;5111591;28;20048;-63
2021/12/25 00:39:29;;;;;;;10.95;9.95;;;;;;;;;;5111443;28;20040;-63
2021/12/25 00:41:56;;;;;;;10.50;9.50;;;;;;;;;;5112467;28;20424;-63
2021/12/25 00:44:22;;;;;;;10.38;9.38;;;;;;;;;;5112166;28;20043;-63
2021/12/25 00:46:48;;;;;;;9.90;9.00;;;;;;;;;;5113273;28;20028;-64
2021/12/25 00:49:14;;;;;;;10.25;9.27;;;;;;;;;;5110850;28;20048;-63
2021/12/25 00:51:42;;;;;;;10.25;9.25;;;;;;;;;;5112565;28;20497;-63
2021/12/25 00:54:09;;;;;;;9.52;8.63;;;;;;;;;;5112579;28;20074;-64
2021/12/25 00:56:35;;;;;;;9.63;8.73;;;;;;;;;;5111058;28;20048;-63
2021/12/25 00:59:01;;;;;;;9.05;8.25;;;;;;;;;;5111079;28;20104;-64
2021/12/25 01:01:28;;;;;;;9.50;8.60;;;;;;;;;;5111219;28;20078;-63
2021/12/25 01:03:54;;;;;;;9.60;8.70;;;;;;;;;;5110920;28;20036;-63
2021/12/25 01:06:21;;;;;;;8.75;7.95;;;;;;;;;;5114672;28;20085;-64
2021/12/25 01:08:48;;;;;;;9.15;8.35;;;;;;;;;;5114755;28;20105;-63
2021/12/25 01:11:15;;;;;;;9.77;8.93;;;;;;;;;;5113823;28;20093;-63
2021/12/25 01:13:47;;;;;;;9.63;7.95;;;;;;;;;;5114647;28;20666;-63
2021/12/25 01:16:27;;;;;;;9.15;8.25;;;;;;;;;;5115925;28;20473;-63
2021/12/25 01:24:50;;;;;;;8.88;8.07;;;;;;;;;;5099345;28;20055;-63
2021/12/25 01:30:12;;;;;;;9.27;7.85;;;;;;;;;;5092938;28;20055;-63
2021/12/25 01:33:15;;;;;;;9.82;8.93;;;;;;;;;;5113466;28;20051;-63
2021/12/25 01:36:09;;;;;;;8.85;8.05;;;;;;;;;;5114185;28;20051;-63
2021/12/25 01:38:52;;;;;;;9.38;8.43;;;;;;;;;;5113108;28;20044;-63
2021/12/25 01:41:42;;;;;;;10.00;9.10;;;;;;;;;;5115115;28;20059;-63
2021/12/25 01:49:37;;;;;;;10.00;9.10;;;;;;;;;;5114263;28;20464;-63
2021/12/25 01:52:04;;;;;;;10.13;9.15;;;;;;;;;;5114705;28;20105;-64
2021/12/25 01:54:30;;;;;;;10.45;9.45;;;;;;;;;;5115096;28;20112;-63
2021/12/25 01:56:58;;;;;;;11.00;9.90;;;;;;;;;;5114706;28;20028;-64
2021/12/25 01:59:24;;;;;;;11.55;10.45;;;;;;;;;;5114280;28;20088;-64
2021/12/25 02:01:50;;;;;;;11.40;10.30;;;;;;;;;;5115864;28;20055;-64
2021/12/25 02:04:17;;;;;;;11.05;10.05;;;;;;;;;;5113439;28;20039;-64
2021/12/25 02:06:43;;;;;;;11.20;10.18;;;;;;;;;;5113134;28;20052;-64
2021/12/25 02:09:09;;;;;;;12.00;10.82;;;;;;;;;;5113639;28;20191;-64
2021/12/25 02:11:35;;;;;;;12.27;11.07;;;;;;;;;;5113637;28;20097;-63
2021/12/25 02:14:03;;;;;;;12.18;10.98;;;;;;;;;;5113264;28;20052;-64
2021/12/25 02:16:39;;;;;;;12.32;11.13;;;;;;;;;;5112327;28;20044;-63
2021/12/25 02:19:10;;;;;;;13.02;11.73;;;;;;;;;;5114333;28;20047;-63
2021/12/25 02:21:39;;;;;;;13.10;11.82;;;;;;;;;;5112599;28;20051;-64
2021/12/25 02:24:07;;;;;;;14.00;12.60;;;;;;;;;;5112949;28;20405;-64
2021/12/25 02:26:33;;;;;;;13.35;11.88;;;;;;;;;;5113284;28;20047;-64
2021/12/25 02:29:00;;;;;;;13.77;12.48;;;;;;;;;;5112089;28;20039;-64
2021/12/25 02:31:26;;;;;;;13.70;12.30;;;;;;;;;;5112788;28;20386;-64
2021/12/25 02:33:53;;;;;;;14.40;13.00;;;;;;;;;;5112660;28;20040;-64
2021/12/25 02:36:19;;;;;;;14.68;13.20;;;;;;;;;;5112240;28;20051;-64
2021/12/25 02:38:47;;;;;;;14.60;13.10;;;;;;;;;;5112694;28;20482;-64
2021/12/25 02:41:14;;;;;;;14.98;13.48;;;;;;;;;;5112287;28;20064;-64
2021/12/25 02:43:43;;;;;;;15.73;14.02;;;;;;;;;;5112881;28;20044;-64
2021/12/25 02:46:09;;;;;;;14.50;13.10;;;;;;;;;;5112855;28;20054;-64
2021/12/25 02:48:36;;;;;;;15.43;13.93;;;;;;;;;;5111970;28;20112;-64
2021/12/25 02:51:03;;;;;;;16.40;14.68;;;;;;;;;;5112157;28;20710;-64
2021/12/25 02:53:29;;;;;;;14.35;12.95;;;;;;;;;;5112567;28;20069;-64
2021/12/25 02:55:57;;;;;;;16.35;14.65;;;;;;;;;;5111592;28;20085;-64
2021/12/25 02:58:24;;;;;;;15.35;13.82;;;;;;;;;;5112478;28;20104;-64
2021/12/25 03:00:52;;;;;;;14.77;13.32;;;;;;;;;;5112182;28;20486;-64
2021/12/25 03:03:18;;;;;;;14.80;13.32;;;;;;;;;;5111380;28;20478;-64
2021/12/25 03:05:44;;;;;;;16.65;14.95;;;;;;;;;;5111752;28;20055;-64
2021/12/25 03:08:12;;;;;;;16.38;14.68;;;;;;;;;;5112570;28;20093;-64
2021/12/25 03:10:39;;;;;;;15.95;14.27;;;;;;;;;;5111461;28;20044;-64
2021/12/25 03:13:29;;;;;;;17.05;15.13;;;;;;;;;;5112233;28;20131;-64
2021/12/25 03:15:55;;;;;;;15.80;14.10;;;;;;;;;;5111773;28;20093;-64
2021/12/25 03:18:23;;;;;;;17.10;15.27;;;;;;;;;;5111351;28;20051;-64
2021/12/25 03:20:50;;;;;;;16.65;14.95;;;;;;;;;;5111819;28;20048;-64
2021/12/25 03:23:17;;;;;;;16.27;14.57;;;;;;;;;;5111346;28;20047;-64
2021/12/25 03:25:44;;;;;;;17.05;15.25;;;;;;;;;;5111457;28;20089;-64
2021/12/25 03:28:12;;;;;;;17.40;14.73;;;;;;;;;;5111835;28;20073;-64
2021/12/25 03:30:39;;;;;;;17.98;15.90;;;;;;;;;;5111161;28;20043;-64
2021/12/25 03:33:06;;;;;;;16.73;14.95;;;;;;;;;;5112034;28;20054;-64
2021/12/25 03:35:33;;;;;;;17.45;15.63;;;;;;;;;;5112053;28;20051;-64
2021/12/25 03:38:00;;;;;;;18.02;15.45;;;;;;;;;;5111014;28;20050;-64
2021/12/25 03:40:26;;;;;;;16.80;15.02;;;;;;;;;;5111827;28;20040;-64
2021/12/25 03:42:52;;;;;;;17.67;15.52;;;;;;;;;;5111602;28;20109;-64
2021/12/25 03:45:20;;;;;;;17.05;15.25;;;;;;;;;;5110950;28;20039;-64
2021/12/25 03:47:48;;;;;;;17.42;15.63;;;;;;;;;;5111351;28;20489;-64
2021/12/25 03:53:24;;;;;;;16.45;14.65;;;;;;;;;;5110696;28;20055;-64
2021/12/25 03:58:34;;;;;;;17.92;15.95;;;;;;;;;;5111186;28;20051;-64
2021/12/25 04:01:21;;;;;;;16.33;14.57;;;;;;;;;;5112361;28;20054;-64
2021/12/25 04:04:01;;;;;;;18.23;14.88;;;;;;;;;;5113233;28;20047;-64
2021/12/25 04:06:27;;;;;;;16.00;13.75;;;;;;;;;;5111269;28;20055;-64
2021/12/25 04:08:53;;;;;;;16.77;13.77;;;;;;;;;;5111739;28;20474;-64
2021/12/25 04:11:27;;;;;;;16.13;14.32;;;;;;;;;;5112718;28;20043;-64
2021/12/25 04:13:54;;;;;;;15.07;13.27;;;;;;;;;;5110828;28;20135;-64
2021/12/25 04:16:22;;;;;;;17.05;15.00;;;;;;;;;;5112067;28;20044;-63
2021/12/25 04:18:48;;;;;;;16.05;13.75;;;;;;;;;;5111175;28;20052;-64
2021/12/25 04:21:14;;;;;;;16.42;13.23;;;;;;;;;;5111601;28;20044;-64
2021/12/25 04:23:42;;;;;;;15.88;14.02;;;;;;;;;;5112389;28;20048;-64
2021/12/25 04:26:09;;;;;;;16.35;13.52;;;;;;;;;;5112138;28;20481;-64
2021/12/25 04:28:40;;;;;;;14.95;12.73;;;;;;;;;;5110570;28;20075;-64
2021/12/25 04:31:25;;;;;;;14.02;11.75;;;;;;;;;;5110859;28;20539;-64
2021/12/25 05:01:41;;;;;;;12.70;11.40;;;;;;;;;;5115004;28;20051;-64
2021/12/25 05:01:50;;;;;;;10.77;9.23;;;;;;;;;;5116702;28;20047;-64
2021/12/25 05:04:21;;;;;;;11.52;9.27;;;;;;;;;;5115077;28;20071;-64
2021/12/25 05:06:49;;;;;;;11.40;9.10;;;;;;;;;;5114799;28;20060;-64
2021/12/25 05:09:15;;;;;;;10.43;8.43;;;;;;;;;;5115041;28;20048;-64
2021/12/25 05:11:41;;;;;;;9.30;7.93;;;;;;;;;;5114735;28;20097;-64
2021/12/25 05:14:08;;;;;;;9.80;8.35;;;;;;;;;;5114452;28;20045;-64
2021/12/25 05:16:34;;;;;;;9.75;8.20;;;;;;;;;;5113828;28;20482;-65
2021/12/25 05:19:01;;;;;;;10.55;8.15;;;;;;;;;;5113897;28;20047;-64
2021/12/25 05:21:27;;;;;;;8.63;7.30;;;;;;;;;;5114582;28;20047;-64
2021/12/25 05:23:55;;;;;;;7.90;7.10;;;;;;;;;;5113346;28;20055;-64
2021/12/25 05:26:21;;;;;;;7.60;6.80;;;;;;;;;;5114606;28;20044;-64
2021/12/25 05:28:57;;;;;;;7.47;6.22;;;;;;;;;;5116658;28;20052;-64
2021/12/25 05:31:23;;;;;;;7.97;6.45;;;;;;;;;;5113606;28;20411;-64
2021/12/25 05:33:50;;;;;;;6.45;5.75;;;;;;;;;;5116420;28;20195;-64
2021/12/25 05:36:16;;;;;;;5.80;4.90;;;;;;;;;;5116651;27;20100;-64
2021/12/25 05:38:42;;;;;;;6.20;5.35;;;;;;;;;;5113211;28;20097;-64
2021/12/25 05:41:11;;;;;;;8.25;6.00;;;;;;;;;;5114795;28;20088;-63
2021/12/25 05:43:37;;;;;;;5.57;5.00;;;;;;;;;;5113984;28;20043;-64
2021/12/25 05:46:04;;;;;;;6.28;4.97;;;;;;;;;;5114485;28;20044;-64
2021/12/25 05:48:35;;;;;;;5.20;4.70;;;;;;;;;;5116359;28;20121;-63
2021/12/25 05:51:01;;;;;;;6.70;5.03;;;;;;;;;;5112710;28;20047;-64
2021/12/25 05:53:27;;;;;;;5.63;4.30;;;;;;;;;;5115445;28;20113;-64
2021/12/25 05:55:54;;;;;;;5.20;4.55;;;;;;;;;;5115975;28;20485;-64
2021/12/25 05:58:21;;;;;;;6.43;4.10;;;;;;;;;;5114170;28;20093;-64
2021/12/25 06:00:47;;;;;;;4.65;4.13;;;;;;;;;;5114679;28;20387;-64
2021/12/25 06:03:14;;;;;;;3.97;3.60;;;;;;;;;;5114003;28;20485;-64
2021/12/25 06:05:40;;;;;;;5.40;3.83;;;;;;;;;;5114531;28;20055;-63
2021/12/25 06:08:06;;;;;;;5.22;3.70;;;;;;;;;;5114965;27;20073;-65
2021/12/25 06:10:33;;;;;;;5.13;3.50;;;;;;;;;;5114874;28;20047;-64
2021/12/25 06:13:00;;;;;;;4.25;3.17;;;;;;;;;;5113156;28;20044;-64
2021/12/25 06:15:29;;;;;;;4.18;3.17;;;;;;;;;;5113423;28;20048;-64
2021/12/25 06:17:56;;;;;;;3.95;3.22;;;;;;;;;;5113547;28;20124;-64
2021/12/25 06:20:22;;;;;;;4.00;3.00;;;;;;;;;;5112362;28;20557;-64
2021/12/25 06:22:49;;;;;;;3.20;2.90;;;;;;;;;;5113504;28;20507;-64
2021/12/25 06:25:15;;;;;;;4.22;3.10;;;;;;;;;;5113829;28;20048;-64
2021/12/25 06:27:41;;;;;;;4.45;2.83;;;;;;;;;;5113085;28;20035;-64
2021/12/25 06:30:08;;;;;;;3.40;2.53;;;;;;;;;;5114810;28;20084;-64
2021/12/25 06:32:36;;;;;;;3.83;2.88;;;;;;;;;;5113563;28;20044;-64
2021/12/25 06:35:02;;;;;;;3.20;2.40;;;;;;;;;;5112687;28;20096;-64
2021/12/25 06:37:29;;;;;;;3.75;2.65;;;;;;;;;;5113337;28;20184;-64
2021/12/25 06:39:55;;;;;;;2.90;2.60;;;;;;;;;;5112745;28;20047;-64
2021/12/25 06:42:21;;;;;;;2.85;2.30;;;;;;;;;;5112559;28;20043;-64
2021/12/25 06:44:48;;;;;;;3.20;2.70;;;;;;;;;;5112754;28;20116;-64
2021/12/25 06:47:14;;;;;;;3.53;2.28;;;;;;;;;;5112274;28;20452;-64
2021/12/25 06:49:42;;;;;;;5.20;2.53;;;;;;;;;;5113865;28;20048;-64
2021/12/25 06:52:08;;;;;;;3.67;2.53;;;;;;;;;;5113872;28;20044;-64
2021/12/25 06:54:34;;;;;;;2.50;2.22;;;;;;;;;;5112102;28;20491;-64
2021/12/25 06:57:01;;;;;;;2.22;1.92;;;;;;;;;;5112587;28;20522;-65
2021/12/25 06:59:28;;;;;;;2.92;2.22;;;;;;;;;;5114216;28;20048;-64
2021/12/25 07:01:54;;;;;;;2.90;2.15;;;;;;;;;;5111185;28;20074;-64
2021/12/25 07:04:20;;;;;;;3.63;2.03;;;;;;;;;;5112395;28;20051;-64
2021/12/25 07:06:48;;;;;;;2.05;1.77;;;;;;;;;;5111796;28;20048;-64
2021/12/25 07:09:14;;;;;;;3.03;2.10;;;;;;;;;;5111528;28;20043;-64
2021/12/25 07:11:42;;;;;;;3.95;2.00;;;;;;;;;;5112361;28;20470;-64
2021/12/25 07:14:10;;;;;;;2.70;2.00;;;;;;;;;;5112450;28;20092;-64
2021/12/25 07:16:37;;;;;;;2.83;1.85;;;;;;;;;;5111552;28;20092;-64
2021/12/25 07:19:03;;;;;;;3.35;2.00;;;;;;;;;;5112079;28;20043;-64
2021/12/25 07:21:30;;;;;;;2.38;1.70;;;;;;;;;;5111950;28;20043;-65
2021/12/25 07:23:58;;;;;;;2.47;1.67;;;;;;;;;;5110837;28;20051;-63
2021/12/25 07:26:24;;;;;;;1.90;1.67;;;;;;;;;;5111877;28;20040;-63
2021/12/25 07:28:50;;;;;;;2.13;1.75;;;;;;;;;;5111970;28;20048;-64
2021/12/25 07:31:18;;;;;;;1.95;1.60;;;;;;;;;;5111162;28;20047;-64
2021/12/25 07:33:44;;;;;;;2.47;1.88;;;;;;;;;;5111872;28;20055;-64
2021/12/25 07:36:11;;;;;;;2.25;1.92;;;;;;;;;;5111746;28;20047;-65
2021/12/25 07:38:37;;;;;;;2.33;1.80;;;;;;;;;;5110998;28;20044;-64
2021/12/25 07:41:05;;;;;;;2.85;1.90;;;;;;;;;;5111664;28;20467;-64
2021/12/25 07:43:31;;;;;;;2.63;1.80;;;;;;;;;;5111171;28;20108;-64
2021/12/25 07:45:58;;;;;;;2.17;1.42;;;;;;;;;;5111571;28;20081;-65
2021/12/25 07:48:26;;;;;;;2.35;1.70;;;;;;;;;;5111936;28;20043;-65
2021/12/25 07:50:53;;;;;;;3.17;1.90;;;;;;;;;;5110791;28;20043;-65
2021/12/25 07:53:19;;;;;;;2.15;1.60;;;;;;;;;;5111760;28;20047;-64
2021/12/25 07:55:47;;;;;;;3.28;1.80;;;;;;;;;;5111635;28;20084;-65
2021/12/25 07:58:15;;;;;;;3.30;1.80;;;;;;;;;;5110779;28;20493;-64
2021/12/25 08:00:41;;;;;;;2.95;2.20;;;;;;;;;;5111670;28;20120;-64
2021/12/25 08:03:08;;;;;;;2.10;1.80;;;;;;;;;;5111623;28;20109;-64
2021/12/25 08:05:34;;;;;;;1.98;1.48;;;;;;;;;;5110901;28;20489;-65
2021/12/25 08:08:00;;;;;;;2.05;1.65;;;;;;;;;;5112116;28;20394;-66
2021/12/25 08:10:27;;;;;;;3.00;1.90;;;;;;;;;;5111944;28;20166;-66
2021/12/25 08:12:54;;;;;;;4.43;1.98;;;;;;;;;;5110548;28;20052;-67
2021/12/25 08:15:22;;;;;;;2.47;1.80;;;;;;;;;;5116025;28;20047;-65
2021/12/25 08:17:48;;;;;;;3.05;2.10;;;;;;;;;;5115375;28;20047;-64
2021/12/25 08:20:15;;;;;;;3.97;2.05;;;;;;;;;;5114979;28;20477;-64
2021/12/25 08:22:42;;;;;;;3.10;2.38;;;;;;;;;;5115720;27;20101;-64
2021/12/25 08:25:09;;;;;;;2.22;2.00;;;;;;;;;;5115692;28;20047;-62
2021/12/25 08:27:35;;;;;;;2.60;2.40;;;;;;;;;;5114946;28;20047;-65
2021/12/25 08:30:02;;;;;;;4.28;2.10;;;;;;;;;;5115286;28;20329;-63
2021/12/25 08:32:30;;;;;;;4.93;1.80;;;;;;;;;;5115299;28;20448;-64
2021/12/25 08:34:56;;;;;;;2.72;1.90;;;;;;;;;;5114166;28;20505;-64
2021/12/25 08:37:24;;;;;;;2.85;2.00;;;;;;;;;;5115540;28;20093;-62
2021/12/25 08:39:50;;;;;;;2.22;2.03;;;;;;;;;;5114394;28;20072;-64
2021/12/25 08:42:17;;;;;;;3.05;2.08;;;;;;;;;;5116286;28;20097;-65
2021/12/25 08:44:54;;;;;;;3.83;2.15;;;;;;;;;;5114843;28;20047;-63
2021/12/25 08:47:21;;;;;;;3.33;2.30;;;;;;;;;;5114563;28;20447;-63
2021/12/25 08:49:48;;;;;;;3.10;2.30;;;;;;;;;;5114959;28;20040;-64
2021/12/25 08:52:16;;;;;;;2.13;1.90;;;;;;;;;;5115477;28;20081;-65
2021/12/25 08:54:43;;;;;;;2.30;1.90;;;;;;;;;;5114348;28;20098;-63
2021/12/25 08:57:09;;;;;;;2.25;2.00;;;;;;;;;;5115264;28;20051;-63
2021/12/25 08:59:37;;;;;;;2.30;1.85;;;;;;;;;;5114892;28;20040;-63
2021/12/25 09:02:05;;;;;;;2.80;1.95;;;;;;;;;;5114025;28;20109;-63
2021/12/25 09:04:31;;;;;;;2.67;2.03;;;;;;;;;;5115084;28;20051;-64
2021/12/25 09:06:59;;;;;;;3.00;1.90;;;;;;;;;;5114240;28;20512;-64
2021/12/25 09:09:25;;;;;;;2.13;1.92;;;;;;;;;;5114010;28;20070;-64
2021/12/25 09:11:51;;;;;;;2.78;1.88;;;;;;;;;;5114540;28;20352;-64
2021/12/25 09:14:18;;;;;;;2.05;1.58;;;;;;;;;;5114449;28;20481;-64
2021/12/25 09:16:44;;;;;;;4.93;2.00;;;;;;;;;;5113588;28;20071;-64
2021/12/25 09:19:11;;;;;;;2.92;1.63;;;;;;;;;;5114733;28;20044;-64
2021/12/25 09:21:37;;;;;;;2.83;1.75;;;;;;;;;;5114655;28;20043;-64
2021/12/25 09:24:05;;;;;;;2.20;1.67;;;;;;;;;;5113353;28;20154;-66
2021/12/25 09:26:31;;;;;;;2.53;1.75;;;;;;;;;;5113848;28;20039;-66
2021/12/25 09:28:57;;;;;;;2.38;1.58;;;;;;;;;;5113199;28;20482;-65
2021/12/25 09:31:23;;;;;;;2.15;1.30;;;;;;;;;;5114323;28;20561;-63
2021/12/25 09:33:52;;;;;;;1.52;1.13;;;;;;;;;;5113884;28;20566;-64
2021/12/25 09:36:18;;;;;;;1.73;1.35;;;;;;;;;;5113539;28;20490;-64
2021/12/25 09:38:44;;;;;;;2.42;1.65;;;;;;;;;;5113910;28;20043;-64
2021/12/25 09:41:12;;;;;;;2.10;1.38;;;;;;;;;;5114332;28;20054;-64
2021/12/25 09:43:40;;;;;;;2.35;1.40;;;;;;;;;;5113245;28;20444;-64
2021/12/25 09:46:06;;;;;;;1.40;1.10;;;;;;;;;;5113791;28;20500;-64
2021/12/25 09:48:33;;;;;;;2.08;1.20;;;;;;;;;;5114328;28;20047;-64
2021/12/25 09:50:59;;;;;;;4.78;1.00;;;;;;;;;;5113020;28;20104;-65
2021/12/25 09:53:26;;;;;;;1.30;1.00;;;;;;;;;;5114436;28;20094;-64
2021/12/25 09:55:53;;;;;;;2.70;1.25;;;;;;;;;;5113721;28;20134;-66
2021/12/25 09:58:20;;;;;;;2.00;1.00;;;;;;;;;;5113011;28;20047;-64
2021/12/25 10:00:47;;;;;;;1.02;0.80;;;;;;;;;;5113557;28;20051;-65
2021/12/25 10:03:14;;;;;;;2.95;0.98;;;;;;;;;;5113942;28;20047;-63
2021/12/25 10:05:41;;;;;;;1.00;0.90;;;;;;;;;;5112951;28;20051;-63
2021/12/25 10:08:10;;;;;;;2.40;1.10;;;;;;;;;;5113665;28;20398;-63
2021/12/25 10:10:40;;;;;;;3.28;1.17;;;;;;;;;;5113849;28;20040;-64
2021/12/25 10:13:16;;;;;;;1.77;1.15;;;;;;;;;;5113117;28;20048;-63
2021/12/25 10:15:44;;;;;;;1.20;0.90;;;;;;;;;;5113367;28;20044;-64
2021/12/25 10:18:10;;;;;;;2.65;1.00;;;;;;;;;;5113282;27;20044;-63
2021/12/25 10:20:37;;;;;;;1.10;0.98;;;;;;;;;;5113351;28;20047;-63
2021/12/25 10:23:07;;;;;;;1.60;1.10;;;;;;;;;;5113062;28;20468;-62
2021/12/25 10:25:38;;;;;;;1.60;1.00;;;;;;;;;;5112663;28;20047;-63
2021/12/25 10:28:06;;;;;;;1.60;0.88;;;;;;;;;;5113072;28;20043;-64
2021/12/25 10:30:43;;;;;;;2.67;0.98;;;;;;;;;;5113352;28;20135;-63
2021/12/25 10:33:23;;;;;;;3.08;1.10;;;;;;;;;;5112298;28;20485;-63
2021/12/25 10:35:50;;;;;;;2.33;0.90;;;;;;;;;;5112793;28;20043;-63
2021/12/25 10:38:17;;;;;;;1.00;0.80;;;;;;;;;;5112235;28;20063;-63
2021/12/25 10:40:45;;;;;;;1.33;0.90;;;;;;;;;;5112065;28;20048;-64
2021/12/25 10:43:19;;;;;;;1.58;0.88;;;;;;;;;;5112982;28;20143;-63
2021/12/25 10:45:57;;;;;;;2.20;1.00;;;;;;;;;;5112510;28;20051;-64
2021/12/25 10:48:27;;;;;;;1.38;0.90;;;;;;;;;;5112272;28;20047;-63
2021/12/25 10:50:54;;;;;;;1.58;0.90;;;;;;;;;;5113156;28;20074;-64
2021/12/25 10:53:25;;;;;;;0.93;0.80;;;;;;;;;;5112064;28;20444;-63
2021/12/25 10:55:51;;;;;;;2.97;1.00;;;;;;;;;;5112525;28;20048;-64
2021/12/25 10:58:19;;;;;;;2.47;0.80;;;;;;;;;;5112677;28;20040;-63
2021/12/25 11:00:49;;;;;;;1.23;0.70;;;;;;;;;;5091107;28;20050;-64
2021/12/25 11:03:15;;;;;;;1.60;0.90;;;;;;;;;;5092434;28;20051;-64
2021/12/25 11:05:46;;;;;;;1.92;0.90;;;;;;;;;;5092134;28;20105;-65
2021/12/25 11:08:13;;;;;;;2.22;0.80;;;;;;;;;;5091571;28;20077;-70
2021/12/25 11:10:43;;;;;;;2.45;0.80;;;;;;;;;;5092219;28;20085;-65
2021/12/25 11:13:17;;;;;;;1.88;0.85;;;;;;;;;;5091966;28;20485;-70
2021/12/25 11:15:44;;;;;;;0.60;0.50;;;;;;;;;;5091231;28;20090;-65
2021/12/25 11:18:12;;;;;;;1.58;0.80;;;;;;;;;;5092017;28;20478;-69
2021/12/25 11:20:40;;;;;;;0.88;0.70;;;;;;;;;;5092236;28;20458;-65
2021/12/25 11:23:09;;;;;;;0.82;0.63;;;;;;;;;;5091085;28;20048;-65
2021/12/25 11:25:35;;;;;;;1.63;0.65;;;;;;;;;;5091774;28;20051;-64
2021/12/25 11:28:06;;;;;;;0.98;0.77;;;;;;;;;;5091833;28;20440;-64
2021/12/25 11:30:33;;;;;;;1.35;0.77;;;;;;;;;;5093530;28;20048;-65
2021/12/25 11:33:00;;;;;;;1.65;0.73;;;;;;;;;;5111733;28;20049;-65
2021/12/25 11:35:27;;;;;;;2.05;0.90;;;;;;;;;;5112048;28;20047;-65
2021/12/25 11:37:54;;;;;;;0.82;0.70;;;;;;;;;;5110881;28;20048;-65
2021/12/25 11:40:23;;;;;;;1.83;0.80;;;;;;;;;;5111961;28;20044;-65
2021/12/25 11:42:52;;;;;;;1.58;0.95;;;;;;;;;;5111137;28;20047;-65
2021/12/25 11:45:20;;;;;;;0.80;0.60;;;;;;;;;;5111943;28;20440;-65
2021/12/25 11:47:48;;;;;;;1.45;0.80;;;;;;;;;;5111575;28;20100;-65
2021/12/25 11:50:16;;;;;;;0.93;0.80;;;;;;;;;;5110964;28;20044;-65
2021/12/25 11:52:47;;;;;;;1.00;0.70;;;;;;;;;;5111998;28;20051;-65
2021/12/25 11:55:31;;;;;;;1.10;0.90;;;;;;;;;;5112117;28;20039;-65
2021/12/25 11:58:06;;;;;;;1.45;0.70;;;;;;;;;;5110799;28;20406;-65
2021/12/25 12:00:38;;;;;;;1.20;0.90;;;;;;;;;;5111711;28;20046;-65
2021/12/25 12:03:05;;;;;;;1.13;0.65;;;;;;;;;;5111415;28;20039;-65
2021/12/25 12:05:32;;;;;;;1.38;0.70;;;;;;;;;;5110553;28;20555;-65
2021/12/25 12:08:00;;;;;;;1.23;0.80;;;;;;;;;;5111889;28;20097;-65
2021/12/25 12:10:45;;;;;;;1.05;0.70;;;;;;;;;;5111503;28;20482;-65
2021/12/25 12:13:19;;;;;;;1.25;0.60;;;;;;;;;;5111736;28;20104;-65
2021/12/25 12:15:46;;;;;;;1.88;0.90;;;;;;;;;;5111110;28;20490;-65
2021/12/25 12:18:34;;;;;;;1.48;0.80;;;;;;;;;;5111184;28;20039;-64
2021/12/25 12:21:06;;;;;;;1.33;0.90;;;;;;;;;;5111190;28;20048;-67
2021/12/25 12:23:41;;;;;;;1.58;0.70;;;;;;;;;;5111546;28;20039;-67
2021/12/25 12:26:10;;;;;;;2.15;1.05;;;;;;;;;;5110676;28;20136;-67
2021/12/25 12:28:47;;;;;;;1.98;0.90;;;;;;;;;;5111741;28;20070;-67
2021/12/25 12:31:32;;;;;;;0.80;0.60;;;;;;;;;;5111373;28;20501;-64
2021/12/25 12:33:58;;;;;;;1.70;0.80;;;;;;;;;;5110370;28;20109;-65
2021/12/25 12:36:25;;;;;;;1.65;0.90;;;;;;;;;;5111920;28;20039;-65
2021/12/25 12:38:55;;;;;;;0.85;0.70;;;;;;;;;;5110464;28;20048;-65
2021/12/25 12:41:25;;;;;;;2.58;1.02;;;;;;;;;;5111591;28;20048;-65
2021/12/25 12:44:04;;;;;;;2.70;1.30;;;;;;;;;;5111223;28;20040;-65
2021/12/25 12:46:50;;;;;;;1.27;0.90;;;;;;;;;;5110526;28;20168;-65
2021/12/25 12:49:18;;;;;;;1.02;0.77;;;;;;;;;;5111192;28;20577;-65
2021/12/25 12:51:45;;;;;;;1.45;0.90;;;;;;;;;;5111022;28;20486;-65
2021/12/25 12:54:11;;;;;;;1.08;0.80;;;;;;;;;;5110457;28;20047;-65
2021/12/25 12:56:57;;;;;;;1.60;0.88;;;;;;;;;;5111243;28;20051;-65
2021/12/25 12:59:41;;;;;;;1.67;0.93;;;;;;;;;;5111371;28;20040;-65
2021/12/25 13:02:07;;;;;;;2.60;0.70;;;;;;;;;;5114037;28;20053;-65
2021/12/25 13:04:41;;;;;;;1.60;0.70;;;;;;;;;;5115028;28;20070;-65
2021/12/25 13:07:09;;;;;;;0.90;0.60;;;;;;;;;;5113833;28;20051;-64
2021/12/25 13:09:40;;;;;;;1.15;0.68;;;;;;;;;;5114749;28;20456;-64
2021/12/25 13:12:19;;;;;;;1.98;1.02;;;;;;;;;;5114713;28;20398;-64
2021/12/25 13:14:56;;;;;;;0.80;0.70;;;;;;;;;;5113820;28;20051;-64
2021/12/25 13:17:22;;;;;;;1.40;0.70;;;;;;;;;;5114525;28;20098;-64
2021/12/25 13:19:49;;;;;;;1.58;0.90;;;;;;;;;;5114243;28;20048;-65
2021/12/25 13:22:15;;;;;;;2.22;0.90;;;;;;;;;;5113744;28;20040;-65
2021/12/25 13:24:41;;;;;;;1.10;0.75;;;;;;;;;;5114227;28;20051;-65
2021/12/25 13:27:07;;;;;;;1.75;0.98;;;;;;;;;;5114459;28;20047;-66
2021/12/25 13:29:34;;;;;;;1.33;0.70;;;;;;;;;;5113804;28;20100;-66
2021/12/25 13:32:03;;;;;;;1.35;0.70;;;;;;;;;;5114103;28;20051;-66
2021/12/25 13:34:29;;;;;;;2.40;0.80;;;;;;;;;;5114283;28;20043;-65
2021/12/25 13:36:56;;;;;;;0.80;0.70;;;;;;;;;;5113077;28;20051;-65
2021/12/25 13:39:25;;;;;;;1.05;0.70;;;;;;;;;;5114633;28;20180;-67
2021/12/25 13:41:53;;;;;;;1.52;0.80;;;;;;;;;;5113831;28;20051;-66
2021/12/25 13:44:20;;;;;;;2.47;0.98;;;;;;;;;;5113462;28;20088;-64
2021/12/25 13:46:48;;;;;;;1.10;0.73;;;;;;;;;;5113258;27;20108;-65
2021/12/25 13:49:29;;;;;;;1.48;0.90;;;;;;;;;;5114778;28;20047;-67
2021/12/25 13:51:56;;;;;;;2.42;0.90;;;;;;;;;;5113679;28;20044;-64
2021/12/25 13:54:22;;;;;;;1.65;1.00;;;;;;;;;;5113708;28;20482;-67
2021/12/25 13:56:48;;;;;;;1.98;0.65;;;;;;;;;;5112677;28;20105;-68
2021/12/25 13:59:15;;;;;;;2.58;0.95;;;;;;;;;;5113629;28;20073;-67
2021/12/25 14:01:41;;;;;;;1.23;0.90;;;;;;;;;;5113717;28;20048;-73
2021/12/25 14:04:08;;;;;;;1.88;1.00;;;;;;;;;;5112885;28;20073;-70
2021/12/25 14:06:36;;;;;;;2.78;1.35;;;;;;;;;;5113589;28;20055;-66
2021/12/25 14:09:03;;;;;;;1.80;1.00;;;;;;;;;;5113375;28;20086;-66
2021/12/25 14:11:29;;;;;;;2.80;1.35;;;;;;;;;;5113004;28;20047;-67
2021/12/25 14:13:56;;;;;;;3.08;1.33;;;;;;;;;;5113256;28;20047;-65
2021/12/25 14:16:22;;;;;;;2.63;1.13;;;;;;;;;;5113433;28;20656;-64
2021/12/25 14:18:48;;;;;;;3.55;1.10;;;;;;;;;;5112192;28;20108;-64
2021/12/25 14:21:16;;;;;;;3.08;1.10;;;;;;;;;;5113421;28;20092;-64
2021/12/25 14:23:43;;;;;;;1.75;1.00;;;;;;;;;;5112666;28;20040;-64
2021/12/25 14:26:10;;;;;;;1.60;1.00;;;;;;;;;;5112488;28;20051;-64
2021/12/25 14:28:37;;;;;;;2.05;1.02;;;;;;;;;;5113420;28;20089;-64
2021/12/25 14:31:05;;;;;;;1.58;1.17;;;;;;;;;;5112865;28;20035;-64
2021/12/25 14:33:32;;;;;;;1.92;1.00;;;;;;;;;;5112762;27;20105;-64
2021/12/25 14:35:59;;;;;;;1.83;1.05;;;;;;;;;;5113221;28;20059;-64
2021/12/25 14:38:25;;;;;;;2.05;1.10;;;;;;;;;;5112492;28;20096;-64
2021/12/25 14:40:53;;;;;;;2.22;1.27;;;;;;;;;;5112820;28;20044;-64
2021/12/25 14:43:27;;;;;;;2.28;1.30;;;;;;;;;;5112927;28;20047;-64
2021/12/25 14:45:55;;;;;;;3.58;1.55;;;;;;;;;;5112087;28;20051;-64
2021/12/25 14:48:25;;;;;;;2.55;0.80;;;;;;;;;;5113117;28;20047;-64
2021/12/25 14:50:54;;;;;;;2.50;1.25;;;;;;;;;;5112708;28;20043;-64
2021/12/25 14:53:20;;;;;;;1.75;1.05;;;;;;;;;;5111936;28;20144;-64
2021/12/25 14:55:49;;;;;;;2.92;1.15;;;;;;;;;;5112787;28;20432;-64
2021/12/25 14:58:20;;;;;;;2.72;1.40;;;;;;;;;;5112488;28;20044;-64
2021/12/25 15:00:47;;;;;;;1.10;0.80;;;;;;;;;;5091499;28;20071;-63
2021/12/25 15:03:17;;;;;;;1.42;1.08;;;;;;;;;;5092339;28;20121;-64
2021/12/25 15:05:45;;;;;;;1.73;1.08;;;;;;;;;;5091725;28;20510;-63
2021/12/25 15:08:19;;;;;;;2.78;1.15;;;;;;;;;;5091562;28;20059;-63
2021/12/25 15:10:45;;;;;;;2.05;1.23;;;;;;;;;;5092286;28;20048;-63
2021/12/25 15:13:15;;;;;;;1.73;1.15;;;;;;;;;;5092198;28;20135;-63
2021/12/25 15:15:49;;;;;;;1.88;1.17;;;;;;;;;;5091197;28;20040;-63
2021/12/25 15:18:20;;;;;;;2.72;1.13;;;;;;;;;;5092120;28;20094;-63
2021/12/25 15:20:46;;;;;;;3.38;1.50;;;;;;;;;;5090755;28;20048;-63
2021/12/25 15:23:16;;;;;;;2.15;1.15;;;;;;;;;;5091373;28;20044;-63
2021/12/25 15:25:42;;;;;;;2.53;1.30;;;;;;;;;;5091624;28;20044;-63
2021/12/25 15:28:09;;;;;;;2.15;1.17;;;;;;;;;;5091135;28;20452;-63
2021/12/25 15:30:35;;;;;;;2.25;1.05;;;;;;;;;;5094291;28;20067;-63